createdAt,value
2023-05-19T00:02:35.146Z,84.09
2023-05-19T00:05:46.310Z,84.36
2023-05-19T00:08:48.842Z,84.84
2023-05-19T00:11:51.616Z,84.88
2023-05-19T00:14:54.444Z,84.84
2023-05-19T00:17:57.140Z,84.78
2023-05-19T00:20:59.752Z,84.48
2023-05-19T00:24:02.162Z,84.45
2023-05-19T00:27:04.919Z,83.85
2023-05-19T00:30:08.666Z,83.95
2023-05-19T00:33:11.134Z,83.86
2023-05-19T00:36:13.741Z,84.38
2023-05-19T00:39:16.388Z,84.08
2023-05-19T00:42:18.958Z,83.53
2023-05-19T00:45:21.427Z,83.70
2023-05-19T00:48:26.257Z,82.77
2023-05-19T00:51:29.759Z,83.33
2023-05-19T00:54:34.714Z,83.89
2023-05-19T00:57:37.809Z,83.63
2023-05-19T01:00:40.766Z,84.11
2023-05-19T01:03:43.321Z,83.44
2023-05-19T01:06:58.089Z,83.27
2023-05-19T01:10:01.062Z,83.45
2023-05-19T01:13:04.492Z,82.78
2023-05-19T01:16:59.369Z,83.89
2023-05-19T01:20:11.088Z,84.89
2023-05-19T01:23:38.678Z,84.99
2023-05-19T01:27:14.129Z,84.11
2023-05-19T01:30:38.226Z,83.66
2023-05-19T01:33:41.477Z,83.72
2023-05-19T01:36:45.002Z,84.45
2023-05-19T01:39:48.581Z,84.14
2023-05-19T01:42:52.782Z,85.20
2023-05-19T01:45:55.764Z,84.99
2023-05-19T01:48:58.322Z,84.98
2023-05-19T01:52:00.892Z,83.98
2023-05-19T01:55:03.259Z,85.28
2023-05-19T01:58:23.548Z,84.55
2023-05-19T02:01:36.046Z,85.17
2023-05-19T02:04:45.208Z,84.90
2023-05-19T02:07:53.082Z,85.65
2023-05-19T02:11:03.364Z,85.46
2023-05-19T02:14:27.043Z,84.92
2023-05-19T02:17:29.697Z,84.72
2023-05-19T02:20:32.559Z,84.99
2023-05-19T02:23:35.421Z,84.97
2023-05-19T02:26:38.080Z,84.59
2023-05-19T02:29:40.527Z,84.76
2023-05-19T02:32:47.021Z,84.81
2023-05-19T02:35:49.665Z,85.04
2023-05-19T02:38:52.455Z,84.74
2023-05-19T02:41:55.103Z,85.31
2023-05-19T02:44:57.556Z,85.63
2023-05-19T02:48:00.123Z,84.91
2023-05-19T02:51:02.539Z,85.40
2023-05-19T02:54:05.325Z,85.70
2023-05-19T02:57:10.290Z,85.06
2023-05-19T03:00:13.291Z,84.96
2023-05-19T03:03:16.123Z,84.93
2023-05-19T03:06:19.001Z,84.77
2023-05-19T03:09:21.598Z,84.37
2023-05-19T03:12:24.716Z,84.77
2023-05-19T03:15:27.353Z,84.92
2023-05-19T03:18:29.968Z,84.89
2023-05-19T03:21:34.734Z,84.25
2023-05-19T03:24:37.348Z,84.12
2023-05-19T03:27:39.898Z,84.60
2023-05-19T03:30:42.423Z,84.50
2023-05-19T03:33:49.622Z,84.57
2023-05-19T03:36:52.016Z,84.70
2023-05-19T03:39:57.557Z,85.00
2023-05-19T03:43:01.159Z,84.68
2023-05-19T03:46:03.820Z,84.76
2023-05-19T03:49:38.466Z,84.44
2023-05-19T03:52:53.748Z,84.26
2023-05-19T03:56:14.109Z,85.06
2023-05-19T03:59:16.858Z,84.14
2023-05-19T04:02:19.462Z,84.26
2023-05-19T04:05:23.725Z,83.75
2023-05-19T04:08:26.322Z,83.78
2023-05-19T04:11:31.104Z,83.61
2023-05-19T04:14:33.980Z,84.28
2023-05-19T04:17:36.461Z,81.95
2023-05-19T04:20:39.527Z,83.03
2023-05-19T04:23:44.317Z,81.38
2023-05-19T04:26:47.439Z,82.24
2023-05-19T04:29:52.989Z,82.61
2023-05-19T04:32:58.208Z,81.59
2023-05-19T04:36:08.572Z,81.49
2023-05-19T04:39:12.407Z,80.56
2023-05-19T04:42:19.520Z,80.42
2023-05-19T04:45:25.918Z,79.76
2023-05-19T04:48:31.101Z,78.73
2023-05-19T04:51:33.529Z,79.47
2023-05-19T04:54:38.636Z,79.18
2023-05-19T04:57:42.449Z,79.24
2023-05-19T05:00:45.556Z,78.35
2023-05-19T05:03:48.164Z,78.91
2023-05-19T05:06:51.497Z,78.53
2023-05-19T05:09:54.732Z,77.17
2023-05-19T05:12:57.741Z,76.53
2023-05-19T05:16:00.817Z,76.87
2023-05-19T05:19:04.462Z,76.50
2023-05-19T05:22:08.672Z,78.63
2023-05-19T05:25:16.365Z,77.05
2023-05-19T05:28:19.379Z,76.90
2023-05-19T05:31:23.054Z,78.21
2023-05-19T05:34:25.845Z,75.90
2023-05-19T05:37:28.398Z,77.52
2023-05-19T05:40:31.213Z,77.01
2023-05-19T05:43:33.688Z,78.92
2023-05-19T05:46:39.177Z,76.70
2023-05-19T05:49:42.271Z,76.07
2023-05-19T05:52:49.364Z,76.95
2023-05-19T05:55:53.680Z,76.30
2023-05-19T05:58:59.191Z,75.95
2023-05-19T06:02:01.979Z,75.72
2023-05-19T06:05:05.935Z,75.95
2023-05-19T06:08:08.857Z,74.10
2023-05-19T06:11:12.181Z,74.89
2023-05-19T06:14:16.379Z,73.61
2023-05-19T06:17:39.423Z,74.64
2023-05-19T06:20:42.375Z,73.77
2023-05-19T06:23:44.923Z,71.85
2023-05-19T06:26:47.950Z,73.06
2023-05-19T06:29:52.305Z,74.57
2023-05-19T06:32:55.667Z,73.54
2023-05-19T06:35:59.492Z,72.09
2023-05-19T06:39:04.086Z,69.61
2023-05-19T06:42:08.073Z,73.09
2023-05-19T06:45:30.869Z,69.75
2023-05-19T06:48:37.474Z,70.79
2023-05-19T06:51:40.322Z,69.73
2023-05-19T06:54:42.885Z,69.93
2023-05-19T06:57:46.631Z,69.06
2023-05-19T07:00:50.761Z,67.85
2023-05-19T07:03:53.752Z,67.83
2023-05-19T07:06:57.643Z,68.26
2023-05-19T07:10:02.546Z,67.39
2023-05-19T07:13:08.366Z,66.35
2023-05-19T07:16:12.345Z,69.61
2023-05-19T07:19:15.329Z,66.29
2023-05-19T07:22:20.879Z,65.80
2023-05-19T07:25:24.011Z,66.63
2023-05-19T07:28:26.616Z,65.62
2023-05-19T07:31:29.470Z,65.05
2023-05-19T07:34:32.238Z,65.10
2023-05-19T07:37:34.879Z,64.76
2023-05-19T07:40:37.443Z,64.37
2023-05-19T07:43:40.181Z,63.17
2023-05-19T07:46:42.887Z,61.88
2023-05-19T07:49:45.755Z,59.84
2023-05-19T07:52:51.820Z,60.84
2023-05-19T07:55:55.871Z,60.62
2023-05-19T07:58:59.523Z,58.51
2023-05-19T08:02:02.110Z,58.83
2023-05-19T08:05:04.994Z,57.81
2023-05-19T08:08:07.566Z,59.68
2023-05-19T08:11:10.525Z,58.79
2023-05-19T08:14:14.580Z,57.81
2023-05-19T08:17:17.311Z,56.57
2023-05-19T08:20:20.575Z,55.27
2023-05-19T08:23:23.519Z,56.22
2023-05-19T08:26:26.483Z,54.51
2023-05-19T08:29:33.798Z,56.13
2023-05-19T08:32:39.138Z,54.38
2023-05-19T08:35:41.596Z,54.42
2023-05-19T08:38:44.233Z,56.32
2023-05-19T08:41:47.657Z,57.72
2023-05-19T08:44:50.423Z,55.90
2023-05-19T08:47:52.983Z,52.38
2023-05-19T08:51:22.345Z,56.34
2023-05-19T08:54:26.734Z,52.56
2023-05-19T08:57:29.378Z,52.36
2023-05-19T09:00:32.582Z,48.72
2023-05-19T09:03:42.455Z,49.33
2023-05-19T09:06:45.709Z,50.78
2023-05-19T09:09:48.498Z,53.25
2023-05-19T09:12:52.293Z,48.84
2023-05-19T09:15:54.856Z,47.91
2023-05-19T09:18:57.801Z,48.67
2023-05-19T09:22:03.965Z,48.10
2023-05-19T09:25:06.760Z,49.33
2023-05-19T09:28:10.581Z,45.63
2023-05-19T09:31:15.134Z,44.94
2023-05-19T09:34:17.832Z,45.59
2023-05-19T09:37:24.238Z,46.44
2023-05-19T09:40:28.473Z,46.04
2023-05-19T09:43:32.877Z,39.83
2023-05-19T09:46:36.763Z,44.53
2023-05-19T09:49:40.085Z,43.40
2023-05-19T09:52:45.688Z,44.06
2023-05-19T09:55:48.767Z,43.27
2023-05-19T09:58:51.813Z,43.96
2023-05-19T10:01:58.856Z,44.85
2023-05-19T10:05:01.698Z,45.81
2023-05-19T10:08:07.437Z,44.84
2023-05-19T10:11:10.606Z,42.09
2023-05-19T10:14:13.374Z,40.86
2023-05-19T10:17:16.475Z,39.08
2023-05-19T10:20:24.939Z,38.62
2023-05-19T10:23:30.984Z,39.70
2023-05-19T10:26:33.997Z,38.53
2023-05-19T10:29:38.348Z,39.02
2023-05-19T10:32:44.894Z,40.64
2023-05-19T10:35:57.404Z,38.63
2023-05-19T10:39:08.167Z,37.40
2023-05-19T10:42:19.645Z,37.33
2023-05-19T10:45:26.047Z,38.16
2023-05-19T10:48:28.957Z,34.86
2023-05-19T10:51:32.570Z,35.05
2023-05-19T10:54:41.362Z,39.53
2023-05-19T10:57:59.142Z,43.41
2023-05-19T11:01:02.420Z,42.53
2023-05-19T11:04:14.207Z,41.67
2023-05-19T11:07:21.221Z,42.16
2023-05-19T11:10:24.351Z,36.42
2023-05-19T11:13:28.474Z,39.44
2023-05-19T11:16:33.994Z,41.36
2023-05-19T11:19:37.664Z,37.89
2023-05-19T11:22:42.749Z,36.16
2023-05-19T11:25:49.663Z,38.35
2023-05-19T11:28:52.260Z,39.90
2023-05-19T11:31:54.742Z,37.60
2023-05-19T11:34:58.195Z,34.41
2023-05-19T11:38:00.820Z,34.73
2023-05-19T11:41:03.628Z,33.85
2023-05-19T11:44:13.237Z,32.51
2023-05-19T11:47:17.130Z,31.69
2023-05-19T11:50:21.044Z,33.93
2023-05-19T11:53:23.515Z,37.90
2023-05-19T11:56:26.431Z,36.90
2023-05-19T11:59:35.996Z,32.83
2023-05-19T12:02:39.086Z,31.62
2023-05-19T12:05:47.852Z,30.43
2023-05-19T12:08:52.063Z,29.77
2023-05-19T12:11:55.081Z,27.67
2023-05-19T12:14:58.355Z,25.56
2023-05-19T12:18:01.823Z,26.98
2023-05-19T12:21:05.270Z,27.36
2023-05-19T12:24:07.943Z,27.15
2023-05-19T12:27:11.381Z,25.68
2023-05-19T12:30:14.056Z,28.57
2023-05-19T12:33:16.764Z,29.07
2023-05-19T12:36:19.622Z,32.10
2023-05-19T12:39:23.363Z,35.02
2023-05-19T12:42:32.461Z,36.79
2023-05-19T12:45:36.232Z,37.11
2023-05-19T12:48:44.031Z,37.68
2023-05-19T12:51:55.674Z,34.82
2023-05-19T12:55:08.446Z,29.28
2023-05-19T12:58:12.040Z,24.91
2023-05-19T13:01:18.266Z,27.47
2023-05-19T13:04:20.906Z,28.35
2023-05-19T13:07:24.310Z,26.61
2023-05-19T13:10:27.786Z,26.03
2023-05-19T13:13:30.442Z,26.89
2023-05-19T13:16:33.078Z,26.02
2023-05-19T13:19:35.714Z,28.46
2023-05-19T13:22:38.657Z,28.06
2023-05-19T13:25:41.662Z,28.25
2023-05-19T13:28:44.117Z,28.02
2023-05-19T13:31:47.107Z,28.00
2023-05-19T13:34:50.243Z,28.16
2023-05-19T13:37:52.741Z,32.86
2023-05-19T13:40:55.226Z,36.05
2023-05-19T13:43:59.293Z,38.19
2023-05-19T13:47:01.866Z,33.57
2023-05-19T13:50:04.973Z,32.01
2023-05-19T13:53:08.402Z,33.89
2023-05-19T13:56:11.180Z,39.03
2023-05-19T13:59:13.666Z,33.47
2023-05-19T14:02:18.390Z,34.28
2023-05-19T14:05:22.476Z,32.32
2023-05-19T14:08:25.019Z,30.63
2023-05-19T14:11:27.634Z,28.63
2023-05-19T14:14:30.050Z,26.95
2023-05-19T14:17:32.824Z,30.10
2023-05-19T14:20:36.100Z,29.05
2023-05-19T14:23:38.993Z,28.02
2023-05-19T14:26:41.925Z,30.56
2023-05-19T14:29:44.449Z,31.10
2023-05-19T14:32:47.016Z,32.26
2023-05-19T14:35:50.091Z,31.99
2023-05-19T14:38:52.729Z,30.70
2023-05-19T14:41:56.382Z,30.53
2023-05-19T14:44:59.082Z,32.22
2023-05-19T14:48:01.917Z,28.82
2023-05-19T14:51:05.028Z,30.68
2023-05-19T14:54:08.267Z,30.35
2023-05-19T14:57:11.021Z,28.31
2023-05-19T15:00:17.799Z,32.06
2023-05-19T15:03:37.202Z,34.46
2023-05-19T15:06:42.325Z,35.45
2023-05-19T15:09:57.217Z,36.39
2023-05-19T15:13:24.927Z,38.03
2023-05-19T15:16:47.397Z,38.96
2023-05-19T15:19:49.842Z,38.31
2023-05-19T15:22:52.311Z,41.63
2023-05-19T15:25:55.643Z,40.91
2023-05-19T15:28:58.174Z,41.88
2023-05-19T15:32:01.126Z,39.96
2023-05-19T15:35:03.852Z,41.56
2023-05-19T15:38:07.000Z,40.90
2023-05-19T15:41:10.152Z,38.70
2023-05-19T15:44:12.925Z,36.36
2023-05-19T15:47:15.789Z,35.88
2023-05-19T15:50:18.456Z,38.17
2023-05-19T15:53:21.112Z,37.06
2023-05-19T15:56:26.108Z,38.48
2023-05-19T15:59:28.600Z,41.14
2023-05-19T16:02:32.364Z,38.64
2023-05-19T16:05:35.232Z,40.34
2023-05-19T16:08:38.422Z,41.29
2023-05-19T16:11:41.082Z,39.96
2023-05-19T16:14:43.744Z,42.82
2023-05-19T16:17:46.417Z,42.58
2023-05-19T16:20:51.345Z,40.61
2023-05-19T16:23:55.471Z,40.39
2023-05-19T16:26:58.068Z,39.48
2023-05-19T16:30:01.254Z,41.03
2023-05-19T16:33:04.462Z,40.37
2023-05-19T16:36:07.085Z,41.87
2023-05-19T16:39:09.813Z,42.97
2023-05-19T16:42:12.690Z,44.37
2023-05-19T16:45:18.090Z,45.25
2023-05-19T16:48:20.864Z,44.69
2023-05-19T16:51:23.418Z,46.75
2023-05-19T16:54:26.128Z,48.73
2023-05-19T16:57:29.019Z,48.16
2023-05-19T17:00:31.891Z,48.86
2023-05-19T17:03:35.907Z,49.09
2023-05-19T17:06:38.375Z,49.66
2023-05-19T17:09:40.926Z,50.83
2023-05-19T17:12:43.253Z,49.58
2023-05-19T17:15:45.659Z,51.34
2023-05-19T17:18:48.303Z,50.66
2023-05-19T17:21:51.761Z,52.05
2023-05-19T17:24:54.303Z,52.45
2023-05-19T17:27:57.348Z,53.55
2023-05-19T17:31:00.124Z,53.86
2023-05-19T17:34:02.697Z,54.08
2023-05-19T17:37:05.279Z,54.16
2023-05-19T17:40:08.341Z,53.68
2023-05-19T17:43:11.111Z,54.33
2023-05-19T17:46:13.739Z,54.59
2023-05-19T17:49:16.260Z,54.94
2023-05-19T17:52:22.377Z,55.03
2023-05-19T17:55:29.923Z,54.50
2023-05-19T17:58:32.862Z,54.56
2023-05-19T18:01:37.112Z,55.25
2023-05-19T18:04:40.116Z,54.95
2023-05-19T18:07:42.839Z,55.44
2023-05-19T18:10:46.257Z,55.93
2023-05-19T18:13:49.073Z,57.15
2023-05-19T18:16:51.683Z,58.93
2023-05-19T18:19:54.783Z,60.16
2023-05-19T18:22:57.826Z,59.53
2023-05-19T18:26:00.623Z,61.38
2023-05-19T18:29:04.971Z,62.05
2023-05-19T18:32:07.909Z,63.37
2023-05-19T18:35:10.823Z,63.74
2023-05-19T18:38:13.256Z,64.14
2023-05-19T18:41:16.459Z,66.04
2023-05-19T18:44:18.988Z,66.14
2023-05-19T18:47:23.107Z,66.70
2023-05-19T18:50:25.802Z,67.03
2023-05-19T18:53:28.375Z,65.37
2023-05-19T18:56:33.547Z,67.44
2023-05-19T18:59:36.464Z,67.86
2023-05-19T19:02:39.066Z,68.74
2023-05-19T19:05:41.496Z,68.93
2023-05-19T19:08:44.479Z,69.35
2023-05-19T19:11:46.959Z,68.93
2023-05-19T19:14:49.411Z,69.78
2023-05-19T19:17:52.207Z,70.37
2023-05-19T19:20:56.790Z,70.44
2023-05-19T19:23:59.365Z,71.10
2023-05-19T19:27:01.907Z,71.23
2023-05-19T19:30:04.761Z,70.08
2023-05-19T19:33:07.268Z,70.58
2023-05-19T19:36:11.400Z,70.66
2023-05-19T19:39:14.356Z,71.27
2023-05-19T19:42:18.876Z,71.06
2023-05-19T19:45:21.470Z,71.52
2023-05-19T19:48:24.006Z,71.85
2023-05-19T19:51:27.404Z,70.38
2023-05-19T19:54:30.094Z,71.00
2023-05-19T19:57:34.366Z,70.71
2023-05-19T20:00:37.273Z,71.15
2023-05-19T20:03:39.908Z,70.98
2023-05-19T20:06:42.331Z,70.84
2023-05-19T20:09:45.427Z,71.15
2023-05-19T20:12:48.025Z,70.06
2023-05-19T20:16:03.771Z,70.52
2023-05-19T20:19:07.805Z,70.26
2023-05-19T20:22:11.885Z,70.97
2023-05-19T20:25:14.855Z,72.39
2023-05-19T20:28:17.218Z,70.69
2023-05-19T20:31:21.568Z,71.45
2023-05-19T20:34:24.181Z,70.71
2023-05-19T20:37:26.792Z,70.38
2023-05-19T20:40:30.329Z,69.46
2023-05-19T20:43:36.183Z,70.58
2023-05-19T20:46:38.754Z,69.70
2023-05-19T20:49:41.353Z,70.20
2023-05-19T20:52:45.866Z,70.68
2023-05-19T20:55:48.824Z,69.72
2023-05-19T20:58:51.368Z,70.11
2023-05-19T21:01:53.890Z,70.27
2023-05-19T21:04:56.694Z,69.89
2023-05-19T21:07:59.240Z,69.89
2023-05-19T21:11:01.676Z,70.66
2023-05-19T21:14:04.361Z,71.14
2023-05-19T21:17:08.418Z,71.11
2023-05-19T21:20:11.424Z,71.34
2023-05-19T21:23:13.885Z,70.86
2023-05-19T21:26:16.596Z,72.35
2023-05-19T21:29:19.267Z,72.22
2023-05-19T21:32:21.843Z,73.31
2023-05-19T21:35:24.451Z,73.33
2023-05-19T21:38:27.329Z,72.91
2023-05-19T21:41:31.210Z,74.02
2023-05-19T21:44:33.838Z,73.54
2023-05-19T21:47:36.513Z,73.81
2023-05-19T21:50:39.225Z,74.16
2023-05-19T21:53:41.890Z,73.92
2023-05-19T21:56:44.380Z,74.82
2023-05-19T21:59:46.887Z,75.60
2023-05-19T22:02:49.736Z,74.83
2023-05-19T22:05:53.118Z,75.15
2023-05-19T22:08:55.651Z,75.34
2023-05-19T22:11:58.219Z,76.60
2023-05-19T22:15:00.924Z,76.79
2023-05-19T22:18:03.426Z,76.85
2023-05-19T22:21:06.425Z,76.95
2023-05-19T22:24:08.884Z,77.38
2023-05-19T22:27:11.774Z,77.21
2023-05-19T22:30:14.247Z,76.82
2023-05-19T22:33:16.821Z,76.42
2023-05-19T22:36:19.335Z,77.26
2023-05-19T22:39:22.205Z,77.27
2023-05-19T22:42:24.683Z,77.20
2023-05-19T22:45:27.252Z,76.90
2023-05-19T22:48:29.910Z,77.44
2023-05-19T22:51:33.577Z,76.58
2023-05-19T22:54:36.372Z,76.61
2023-05-19T22:57:39.027Z,76.40
2023-05-19T23:00:41.502Z,76.80
2023-05-19T23:03:44.825Z,77.14
2023-05-19T23:06:47.965Z,76.40
2023-05-19T23:09:50.553Z,77.53
2023-05-19T23:12:53.159Z,76.79
2023-05-19T23:15:55.941Z,76.59
2023-05-19T23:18:58.356Z,76.88
2023-05-19T23:22:01.150Z,76.81
2023-05-19T23:25:07.693Z,78.46
2023-05-19T23:28:11.369Z,78.06
2023-05-19T23:31:14.220Z,79.02
2023-05-19T23:34:16.697Z,79.46
2023-05-19T23:37:20.443Z,79.49
2023-05-19T23:40:22.928Z,79.71
2023-05-19T23:43:25.453Z,79.81
2023-05-19T23:46:28.100Z,79.66
2023-05-19T23:49:30.647Z,79.15
2023-05-19T23:52:33.203Z,79.53
2023-05-19T23:55:35.906Z,78.64
2023-05-19T23:58:38.677Z,78.85
